createdAt,value
2023-05-25T00:01:34.409Z,7.14
2023-05-25T00:04:02.992Z,7.11
2023-05-25T00:06:31.053Z,7.08
2023-05-25T00:08:59.197Z,7.06
2023-05-25T00:11:28.835Z,7.05
2023-05-25T00:13:56.567Z,7.04
2023-05-25T00:16:24.401Z,7.02
2023-05-25T00:18:53.238Z,7.03
2023-05-25T00:21:21.138Z,7.01
2023-05-25T00:23:48.952Z,7.00
2023-05-25T00:26:16.721Z,6.99
2023-05-25T00:28:45.867Z,7.00
2023-05-25T00:31:13.938Z,6.96
2023-05-25T00:33:42.148Z,6.94
2023-05-25T00:36:10.267Z,6.92
2023-05-25T00:38:38.443Z,6.89
2023-05-25T00:41:07.293Z,6.87
2023-05-25T00:43:35.825Z,6.86
2023-05-25T00:46:05.129Z,6.82
2023-05-25T00:48:34.145Z,6.83
2023-05-25T00:51:02.137Z,6.81
2023-05-25T00:53:30.009Z,6.79
2023-05-25T00:56:05.698Z,6.77
2023-05-25T00:58:37.365Z,6.74
2023-05-25T01:01:11.836Z,6.72
2023-05-25T01:03:45.848Z,6.69
2023-05-25T01:06:17.043Z,6.66
2023-05-25T01:08:51.049Z,6.63
2023-05-25T01:11:23.167Z,6.62
2023-05-25T01:13:53.791Z,6.58
2023-05-25T01:16:23.558Z,6.55
2023-05-25T01:18:52.798Z,6.51
2023-05-25T01:21:27.161Z,6.48
2023-05-25T01:24:03.196Z,6.45
2023-05-25T01:26:38.218Z,6.43
2023-05-25T01:29:07.598Z,6.41
2023-05-25T01:31:37.299Z,6.38
2023-05-25T01:34:06.765Z,6.35
2023-05-25T01:36:35.961Z,6.34
2023-05-25T01:39:06.983Z,6.30
2023-05-25T01:41:35.402Z,6.29
2023-05-25T01:44:03.356Z,6.26
2023-05-25T01:46:37.007Z,6.25
2023-05-25T01:49:23.570Z,6.24
2023-05-25T01:52:01.665Z,6.21
2023-05-25T01:54:37.402Z,6.18
2023-05-25T01:57:08.965Z,6.16
2023-05-25T01:59:39.711Z,6.13
2023-05-25T02:02:08.610Z,6.13
2023-05-25T02:04:37.138Z,6.12
2023-05-25T02:07:06.769Z,6.10
2023-05-25T02:09:34.710Z,6.07
2023-05-25T02:12:02.500Z,6.05
2023-05-25T02:14:30.448Z,6.02
2023-05-25T02:17:01.966Z,6.03
2023-05-25T02:19:29.918Z,6.00
2023-05-25T02:21:58.489Z,5.92
2023-05-25T02:24:28.166Z,5.88
2023-05-25T02:26:56.175Z,5.87
2023-05-25T02:29:23.973Z,5.83
2023-05-25T02:31:52.053Z,5.83
2023-05-25T02:34:19.891Z,5.79
2023-05-25T02:36:47.888Z,5.78
2023-05-25T02:39:15.788Z,5.77
2023-05-25T02:41:45.527Z,5.76
2023-05-25T02:44:13.403Z,5.76
2023-05-25T02:46:41.370Z,5.75
2023-05-25T02:49:09.487Z,5.70
2023-05-25T02:51:38.090Z,5.65
2023-05-25T02:54:06.896Z,5.61
2023-05-25T02:56:35.052Z,5.56
2023-05-25T02:59:05.599Z,5.56
2023-05-25T03:01:35.107Z,5.55
2023-05-25T03:04:03.382Z,5.55
2023-05-25T03:06:38.055Z,5.54
2023-05-25T03:09:16.451Z,5.53
2023-05-25T03:11:45.187Z,5.53
2023-05-25T03:14:19.385Z,5.52
2023-05-25T03:16:54.853Z,5.49
2023-05-25T03:19:24.438Z,5.48
2023-05-25T03:21:52.237Z,5.46
2023-05-25T03:24:20.561Z,5.46
2023-05-25T03:26:49.012Z,5.45
2023-05-25T03:29:18.784Z,5.46
2023-05-25T03:31:47.227Z,5.47
2023-05-25T03:34:15.164Z,5.48
2023-05-25T03:36:45.961Z,5.50
2023-05-25T03:39:14.867Z,5.47
2023-05-25T03:41:44.251Z,5.46
2023-05-25T03:44:12.502Z,5.46
2023-05-25T03:46:42.671Z,5.48
2023-05-25T03:49:14.166Z,5.48
2023-05-25T03:51:42.400Z,5.51
2023-05-25T03:54:10.448Z,5.53
2023-05-25T03:56:38.445Z,5.58
2023-05-25T03:59:06.585Z,5.59
2023-05-25T04:01:38.196Z,5.61
2023-05-25T04:04:07.510Z,5.63
2023-05-25T04:06:37.282Z,5.63
2023-05-25T04:09:05.768Z,5.63
2023-05-25T04:11:34.494Z,5.67
2023-05-25T04:14:02.388Z,5.68
2023-05-25T04:16:33.529Z,5.71
2023-05-25T04:19:02.469Z,5.74
2023-05-25T04:21:32.342Z,5.77
2023-05-25T04:24:01.466Z,5.83
2023-05-25T04:26:30.228Z,5.88
2023-05-25T04:29:02.021Z,5.96
2023-05-25T04:31:54.774Z,6.03
2023-05-25T04:34:42.377Z,6.11
2023-05-25T04:37:18.020Z,6.21
2023-05-25T04:39:46.573Z,6.29
2023-05-25T04:42:14.545Z,6.39
2023-05-25T04:44:42.557Z,6.48
2023-05-25T04:47:11.394Z,6.58
2023-05-25T04:49:40.022Z,6.67
2023-05-25T04:52:09.774Z,6.76
2023-05-25T04:54:42.056Z,6.88
2023-05-25T04:57:10.810Z,7.00
2023-05-25T04:59:38.629Z,7.09
2023-05-25T05:02:06.901Z,7.19
2023-05-25T05:04:34.878Z,7.29
2023-05-25T05:07:03.584Z,7.39
2023-05-25T05:09:32.316Z,7.51
2023-05-25T05:12:03.558Z,7.62
2023-05-25T05:14:36.705Z,7.72
2023-05-25T05:17:04.706Z,7.82
2023-05-25T05:19:33.215Z,7.92
2023-05-25T05:22:01.043Z,8.03
2023-05-25T05:24:28.956Z,8.13
2023-05-25T05:26:59.118Z,8.24
2023-05-25T05:29:34.270Z,8.35
2023-05-25T05:32:02.123Z,8.47
2023-05-25T05:34:30.736Z,8.58
2023-05-25T05:37:00.137Z,8.69
2023-05-25T05:39:29.277Z,8.77
2023-05-25T05:41:57.306Z,8.88
2023-05-25T05:44:28.636Z,9.01
2023-05-25T05:47:01.737Z,9.11
2023-05-25T05:49:31.770Z,9.20
2023-05-25T05:52:01.109Z,9.28
2023-05-25T05:54:28.831Z,9.35
2023-05-25T05:56:59.856Z,9.43
2023-05-25T05:59:27.514Z,9.50
2023-05-25T06:01:56.162Z,9.60
2023-05-25T06:04:28.779Z,9.68
2023-05-25T06:06:57.368Z,9.79
2023-05-25T06:09:26.444Z,9.88
2023-05-25T06:11:54.439Z,9.96
2023-05-25T06:14:22.803Z,10.04
2023-05-25T06:16:51.207Z,10.12
2023-05-25T06:19:27.228Z,10.20
2023-05-25T06:21:57.435Z,10.29
2023-05-25T06:24:31.498Z,10.42
2023-05-25T06:27:05.565Z,10.50
2023-05-25T06:29:38.229Z,10.58
2023-05-25T06:32:19.986Z,10.68
2023-05-25T06:35:02.413Z,10.74
2023-05-25T06:37:38.283Z,10.78
2023-05-25T06:40:10.688Z,10.81
2023-05-25T06:42:40.820Z,10.88
2023-05-25T06:45:32.429Z,10.94
2023-05-25T06:48:08.070Z,11.01
2023-05-25T06:50:46.126Z,11.08
2023-05-25T06:53:22.970Z,11.17
2023-05-25T06:55:54.089Z,11.26
2023-05-25T06:58:25.285Z,11.38
2023-05-25T07:00:53.527Z,11.47
2023-05-25T07:03:26.437Z,11.55
2023-05-25T07:06:00.315Z,11.64
2023-05-25T07:08:30.534Z,11.71
2023-05-25T07:10:58.678Z,11.77
2023-05-25T07:13:27.421Z,11.83
2023-05-25T07:16:05.687Z,11.91
2023-05-25T07:18:50.481Z,12.04
2023-05-25T07:21:21.620Z,12.15
2023-05-25T07:23:52.973Z,12.25
2023-05-25T07:29:17.674Z,12.49
2023-05-25T07:31:49.100Z,12.63
2023-05-25T07:34:18.138Z,12.76
2023-05-25T07:36:47.285Z,12.86
2023-05-25T07:39:23.701Z,12.94
2023-05-25T07:42:04.975Z,12.97
2023-05-25T07:44:33.389Z,12.98
2023-05-25T07:47:04.139Z,13.07
2023-05-25T07:49:47.989Z,13.23
2023-05-25T07:52:19.104Z,13.44
2023-05-25T07:54:52.805Z,13.56
2023-05-25T07:57:29.974Z,13.67
2023-05-25T08:00:09.490Z,13.74
2023-05-25T08:02:42.242Z,13.81
2023-05-25T08:05:14.142Z,13.86
2023-05-25T08:07:54.923Z,13.96
2023-05-25T08:10:31.709Z,14.11
2023-05-25T08:13:22.720Z,14.30
2023-05-25T08:15:51.673Z,14.45
2023-05-25T08:18:23.165Z,14.60
2023-05-25T08:20:54.303Z,14.76
2023-05-25T08:23:27.531Z,14.97
2023-05-25T08:25:58.218Z,15.11
2023-05-25T08:28:45.734Z,15.28
2023-05-25T08:31:22.873Z,15.38
2023-05-25T08:33:56.361Z,15.47
2023-05-25T08:36:38.812Z,15.64
2023-05-25T08:39:21.206Z,15.77
2023-05-25T08:41:54.561Z,15.79
2023-05-25T08:44:25.048Z,15.94
2023-05-25T08:47:00.284Z,16.07
2023-05-25T08:49:32.078Z,16.21
2023-05-25T08:52:09.152Z,16.31
2023-05-25T08:54:40.281Z,16.33
2023-05-25T08:57:26.103Z,16.43
2023-05-25T09:00:01.902Z,16.58
2023-05-25T09:02:37.989Z,16.75
2023-05-25T09:05:18.555Z,16.96
2023-05-25T09:07:51.713Z,17.12
2023-05-25T09:10:27.683Z,17.22
2023-05-25T09:12:57.748Z,17.30
2023-05-25T09:15:30.171Z,17.33
2023-05-25T09:18:05.375Z,17.47
2023-05-25T09:20:34.205Z,17.69
2023-05-25T09:23:03.292Z,17.78
2023-05-25T09:25:37.972Z,17.76
2023-05-25T09:30:43.549Z,17.77
2023-05-25T09:33:17.978Z,17.83
2023-05-25T09:36:03.989Z,17.91
2023-05-25T09:38:32.112Z,17.89
2023-05-25T09:41:00.704Z,17.93
2023-05-25T09:43:41.943Z,18.15
2023-05-25T09:46:18.887Z,18.42
2023-05-25T09:48:57.974Z,18.65
2023-05-25T09:51:27.186Z,18.83
2023-05-25T09:53:55.576Z,19.04
2023-05-25T09:56:34.294Z,19.23
2023-05-25T09:59:06.288Z,19.36
2023-05-25T10:01:38.628Z,19.36
2023-05-25T10:04:20.459Z,19.55
2023-05-25T10:06:51.220Z,19.83
2023-05-25T10:09:19.975Z,20.14
2023-05-25T10:11:57.042Z,20.23
2023-05-25T10:14:34.221Z,20.37
2023-05-25T10:17:08.143Z,20.54
2023-05-25T10:19:44.695Z,20.88
2023-05-25T10:22:22.265Z,21.24
2023-05-25T10:24:59.569Z,21.46
2023-05-25T10:27:52.176Z,21.70
2023-05-25T10:30:27.045Z,21.75
2023-05-25T10:33:00.812Z,21.99
2023-05-25T10:35:46.732Z,21.94
2023-05-25T10:38:20.247Z,21.81
2023-05-25T10:40:51.206Z,21.69
2023-05-25T10:43:35.252Z,21.45
2023-05-25T10:46:15.313Z,21.67
2023-05-25T10:48:52.153Z,22.10
2023-05-25T10:51:44.104Z,22.37
2023-05-25T10:54:26.235Z,22.41
2023-05-25T10:57:18.164Z,22.51
2023-05-25T10:59:50.927Z,22.48
2023-05-25T11:02:23.297Z,22.81
2023-05-25T11:05:31.218Z,23.28
2023-05-25T11:07:59.984Z,23.44
2023-05-25T11:10:54.183Z,23.49
2023-05-25T11:13:23.708Z,23.38
2023-05-25T11:16:17.553Z,23.19
2023-05-25T11:18:50.363Z,22.88
2023-05-25T11:21:23.570Z,22.76
2023-05-25T11:23:56.196Z,22.87
2023-05-25T11:26:26.098Z,23.10
2023-05-25T11:28:54.632Z,23.41
2023-05-25T11:31:24.451Z,23.67
2023-05-25T11:34:22.121Z,23.65
2023-05-25T11:36:49.752Z,23.51
2023-05-25T11:39:22.291Z,23.44
2023-05-25T11:41:54.695Z,23.27
2023-05-25T11:44:30.151Z,22.99
2023-05-25T11:47:01.838Z,22.82
2023-05-25T11:49:33.738Z,22.81
2023-05-25T11:52:06.259Z,22.98
2023-05-25T11:54:34.634Z,22.90
2023-05-25T11:57:03.065Z,22.83
2023-05-25T11:59:32.497Z,23.07
2023-05-25T12:02:01.459Z,23.39
2023-05-25T12:04:31.132Z,23.75
2023-05-25T12:07:06.444Z,23.97
2023-05-25T12:09:34.823Z,24.05
2023-05-25T12:12:05.005Z,24.08
2023-05-25T12:14:34.992Z,24.26
2023-05-25T12:17:02.920Z,24.48
2023-05-25T12:19:32.183Z,24.60
2023-05-25T12:21:59.981Z,24.86
2023-05-25T12:24:27.802Z,25.10
2023-05-25T12:26:57.769Z,25.34
2023-05-25T12:29:26.537Z,25.22
2023-05-25T12:31:54.396Z,25.36
2023-05-25T12:34:22.367Z,25.58
2023-05-25T12:36:53.669Z,25.89
2023-05-25T12:39:34.843Z,26.22
2023-05-25T12:42:03.566Z,26.03
2023-05-25T12:44:33.366Z,26.01
2023-05-25T12:47:11.896Z,26.23
2023-05-25T12:49:41.614Z,26.41
2023-05-25T12:52:11.655Z,26.53
2023-05-25T12:54:42.313Z,26.44
2023-05-25T12:57:11.624Z,26.58
2023-05-25T12:59:40.772Z,26.83
2023-05-25T13:02:09.231Z,27.08
2023-05-25T13:04:38.587Z,27.18
2023-05-25T13:07:08.746Z,27.29
2023-05-25T13:09:38.396Z,27.09
2023-05-25T13:12:07.145Z,27.08
2023-05-25T13:14:34.814Z,27.23
2023-05-25T13:17:02.755Z,27.30
2023-05-25T13:19:30.710Z,27.29
2023-05-25T13:21:58.880Z,27.21
2023-05-25T13:24:26.562Z,27.29
2023-05-25T13:26:55.706Z,27.32
2023-05-25T13:29:23.955Z,27.39
2023-05-25T13:31:51.921Z,27.52
2023-05-25T13:34:19.767Z,27.75
2023-05-25T13:36:47.541Z,27.98
2023-05-25T13:39:15.301Z,28.11
2023-05-25T13:41:43.901Z,27.99
2023-05-25T13:44:16.500Z,28.25
2023-05-25T13:46:45.398Z,28.39
2023-05-25T13:49:15.238Z,28.50
2023-05-25T13:51:44.078Z,28.58
2023-05-25T13:54:12.857Z,28.54
2023-05-25T13:56:42.395Z,28.61
2023-05-25T13:59:10.500Z,28.45
2023-05-25T14:01:39.613Z,28.22
2023-05-25T14:04:07.617Z,27.91
2023-05-25T14:06:35.861Z,27.79
2023-05-25T14:09:03.802Z,27.82
2023-05-25T14:11:31.703Z,28.00
2023-05-25T14:13:59.436Z,28.19
2023-05-25T14:16:27.489Z,28.15
2023-05-25T14:18:57.357Z,28.03
2023-05-25T14:21:25.299Z,27.87
2023-05-25T14:23:53.055Z,27.78
2023-05-25T14:26:22.031Z,27.79
2023-05-25T14:28:50.075Z,27.69
2023-05-25T14:31:17.850Z,27.54
2023-05-25T14:33:45.849Z,27.62
2023-05-25T14:36:14.948Z,27.69
2023-05-25T14:38:42.750Z,27.46
2023-05-25T14:41:10.680Z,27.10
2023-05-25T14:43:38.579Z,27.04
2023-05-25T14:46:07.382Z,27.08
2023-05-25T14:48:36.282Z,26.99
2023-05-25T14:51:04.245Z,27.00
2023-05-25T14:53:33.336Z,26.90
2023-05-25T14:56:01.701Z,26.73
2023-05-25T14:58:29.809Z,26.68
2023-05-25T15:00:57.577Z,26.54
2023-05-25T15:03:25.498Z,26.49
2023-05-25T15:05:53.386Z,26.31
2023-05-25T15:08:21.250Z,26.14
2023-05-25T15:10:50.525Z,26.23
2023-05-25T15:13:18.761Z,26.39
2023-05-25T15:15:47.072Z,26.43
2023-05-25T15:18:15.007Z,26.32
2023-05-25T15:20:42.836Z,26.33
2023-05-25T15:23:10.593Z,26.26
2023-05-25T15:25:38.384Z,26.12
2023-05-25T15:28:07.577Z,25.87
2023-05-25T15:30:35.464Z,25.67
2023-05-25T15:33:03.548Z,25.57
2023-05-25T15:35:32.611Z,25.56
2023-05-25T15:38:01.171Z,25.48
2023-05-25T15:40:29.267Z,25.42
2023-05-25T15:42:57.310Z,25.34
2023-05-25T15:45:26.795Z,25.17
2023-05-25T15:47:54.598Z,25.08
2023-05-25T15:50:22.549Z,24.85
2023-05-25T15:52:50.409Z,24.70
2023-05-25T15:55:18.258Z,24.55
2023-05-25T15:57:46.039Z,24.32
2023-05-25T16:00:15.351Z,24.10
2023-05-25T16:02:44.464Z,23.84
2023-05-25T16:05:12.249Z,23.71
2023-05-25T16:07:40.033Z,23.56
2023-05-25T16:10:08.806Z,23.42
2023-05-25T16:12:36.644Z,23.23
2023-05-25T16:15:04.820Z,23.01
2023-05-25T16:17:33.271Z,22.73
2023-05-25T16:20:02.492Z,22.42
2023-05-25T16:22:30.255Z,22.14
2023-05-25T16:24:58.184Z,21.91
2023-05-25T16:27:26.061Z,21.75
2023-05-25T16:29:54.169Z,21.67
2023-05-25T16:32:22.115Z,21.55
2023-05-25T16:34:50.040Z,21.47
2023-05-25T16:37:19.261Z,21.41
2023-05-25T16:39:47.053Z,21.32
2023-05-25T16:42:14.933Z,21.25
2023-05-25T16:44:42.672Z,21.19
2023-05-25T16:47:10.452Z,21.09
2023-05-25T16:49:38.162Z,21.00
2023-05-25T16:52:06.353Z,20.89
2023-05-25T16:54:35.413Z,20.77
2023-05-25T16:57:03.207Z,20.66
2023-05-25T16:59:31.093Z,20.53
2023-05-25T17:02:00.608Z,20.42
2023-05-25T17:04:28.681Z,20.31
2023-05-25T17:06:56.604Z,20.21
2023-05-25T17:09:25.202Z,20.12
2023-05-25T17:11:59.399Z,20.02
2023-05-25T17:14:27.450Z,19.90
2023-05-25T17:16:55.817Z,19.78
2023-05-25T17:19:23.708Z,19.69
2023-05-25T17:21:52.334Z,19.55
2023-05-25T17:24:20.437Z,19.42
2023-05-25T17:26:50.075Z,19.28
2023-05-25T17:29:19.275Z,19.19
2023-05-25T17:31:48.962Z,19.12
2023-05-25T17:34:17.262Z,19.03
2023-05-25T17:36:45.081Z,18.92
2023-05-25T17:39:12.862Z,18.82
2023-05-25T17:41:41.473Z,18.70
2023-05-25T17:44:09.837Z,18.61
2023-05-25T17:46:39.364Z,18.54
2023-05-25T17:49:07.183Z,18.45
2023-05-25T17:51:35.039Z,18.38
2023-05-25T17:54:03.931Z,18.33
2023-05-25T17:56:32.007Z,18.25
2023-05-25T17:58:59.814Z,18.21
2023-05-25T18:01:27.703Z,18.11
2023-05-25T18:03:57.426Z,18.05
2023-05-25T18:06:27.796Z,17.97
2023-05-25T18:08:57.076Z,17.90
2023-05-25T18:11:26.275Z,17.84
2023-05-25T18:13:54.175Z,17.80
2023-05-25T18:16:22.063Z,17.73
2023-05-25T18:18:49.959Z,17.65
2023-05-25T18:21:19.071Z,17.58
2023-05-25T18:23:46.940Z,17.53
2023-05-25T18:26:14.725Z,17.48
2023-05-25T18:28:42.482Z,17.39
2023-05-25T18:31:10.365Z,17.34
2023-05-25T18:33:38.176Z,17.27
2023-05-25T18:36:06.458Z,17.20
2023-05-25T18:38:36.096Z,17.13
2023-05-25T18:41:04.119Z,17.06
2023-05-25T18:43:31.901Z,16.99
2023-05-25T18:45:59.866Z,16.96
2023-05-25T18:48:27.734Z,16.92
2023-05-25T18:50:55.831Z,16.86
2023-05-25T18:53:23.677Z,16.80
2023-05-25T18:55:53.204Z,16.75
2023-05-25T18:58:21.291Z,16.71
2023-05-25T19:00:49.140Z,16.64
2023-05-25T19:03:17.052Z,16.58
2023-05-25T19:05:45.057Z,16.52
2023-05-25T19:08:12.974Z,16.46
2023-05-25T19:10:41.658Z,16.41
2023-05-25T19:13:11.161Z,16.35
2023-05-25T19:15:38.869Z,16.28
2023-05-25T19:18:06.922Z,16.22
2023-05-25T19:20:35.907Z,16.17
2023-05-25T19:23:03.716Z,16.10
2023-05-25T19:25:31.482Z,16.02
2023-05-25T19:28:00.564Z,15.95
2023-05-25T19:30:29.698Z,15.89
2023-05-25T19:32:57.521Z,15.84
2023-05-25T19:35:25.304Z,15.77
2023-05-25T19:37:53.089Z,15.71
2023-05-25T19:40:20.941Z,15.63
2023-05-25T19:42:48.787Z,15.57
2023-05-25T19:45:19.287Z,15.49
2023-05-25T19:47:48.607Z,15.43
2023-05-25T19:50:16.502Z,15.36
2023-05-25T19:52:44.279Z,15.29
2023-05-25T19:55:12.026Z,15.22
2023-05-25T19:57:39.703Z,15.16
2023-05-25T20:00:14.390Z,15.09
2023-05-25T20:02:54.455Z,15.02
2023-05-25T20:05:22.367Z,14.95
2023-05-25T20:07:50.977Z,14.88
2023-05-25T20:10:19.131Z,14.82
2023-05-25T20:12:46.901Z,14.77
2023-05-25T20:15:14.686Z,14.73
2023-05-25T20:17:42.448Z,14.67
2023-05-25T20:20:12.041Z,14.61
2023-05-25T20:22:39.852Z,14.56
2023-05-25T20:25:08.252Z,14.51
2023-05-25T20:27:35.978Z,14.46
2023-05-25T20:30:03.762Z,14.38
2023-05-25T20:32:31.651Z,14.33
2023-05-25T20:34:59.418Z,14.29
2023-05-25T20:37:29.556Z,14.26
2023-05-25T20:39:57.274Z,14.19
2023-05-25T20:42:25.153Z,14.15
2023-05-25T20:44:52.931Z,14.10
2023-05-25T20:47:20.772Z,14.07
2023-05-25T20:49:48.561Z,14.01
2023-05-25T20:52:16.657Z,13.97
2023-05-25T20:54:45.663Z,13.93
2023-05-25T20:57:13.569Z,13.87
2023-05-25T20:59:41.552Z,13.84
2023-05-25T21:02:09.654Z,13.79
2023-05-25T21:04:37.433Z,13.75
2023-05-25T21:07:05.659Z,13.70
2023-05-25T21:09:33.435Z,13.65
2023-05-25T21:12:03.524Z,13.61
2023-05-25T21:14:31.308Z,13.58
2023-05-25T21:16:58.979Z,13.53
2023-05-25T21:19:27.019Z,13.49
2023-05-25T21:21:54.997Z,13.44
2023-05-25T21:24:22.965Z,13.41
2023-05-25T21:26:50.694Z,13.37
2023-05-25T21:29:19.834Z,13.32
2023-05-25T21:31:47.660Z,13.27
2023-05-25T21:34:15.503Z,13.24
2023-05-25T21:36:43.437Z,13.20
2023-05-25T21:39:11.490Z,13.16
2023-05-25T21:41:39.397Z,13.09
2023-05-25T21:44:07.196Z,13.03
2023-05-25T21:46:36.426Z,12.98
2023-05-25T21:49:04.248Z,12.91
2023-05-25T21:51:32.904Z,12.85
2023-05-25T21:54:01.160Z,12.80
2023-05-25T21:56:29.125Z,12.76
2023-05-25T21:58:56.857Z,12.72
2023-05-25T22:01:24.820Z,12.69
2023-05-25T22:03:54.014Z,12.66
2023-05-25T22:06:21.772Z,12.62
2023-05-25T22:08:49.797Z,12.57
2023-05-25T22:11:17.679Z,12.53
2023-05-25T22:13:48.451Z,12.48
2023-05-25T22:16:16.388Z,12.43
2023-05-25T22:18:46.689Z,12.37
2023-05-25T22:21:17.445Z,12.35
2023-05-25T22:23:45.312Z,12.30
2023-05-25T22:26:13.270Z,12.27
2023-05-25T22:28:44.199Z,12.23
2023-05-25T22:31:12.609Z,12.18
2023-05-25T22:33:43.443Z,12.13
2023-05-25T22:36:15.057Z,12.09
2023-05-25T22:38:47.130Z,12.04
2023-05-25T22:41:16.774Z,12.01
2023-05-25T22:43:44.723Z,11.95
2023-05-25T22:46:12.763Z,11.92
2023-05-25T22:48:40.741Z,11.88
2023-05-25T22:51:10.726Z,11.84
2023-05-25T22:53:40.773Z,11.78
2023-05-25T22:56:10.284Z,11.75
2023-05-25T22:58:40.210Z,11.70
2023-05-25T23:01:07.980Z,11.67
2023-05-25T23:03:36.331Z,11.63
2023-05-25T23:06:04.397Z,11.59
2023-05-25T23:08:32.198Z,11.54
2023-05-25T23:10:59.994Z,11.51
2023-05-25T23:13:29.385Z,11.49
2023-05-25T23:15:57.309Z,11.44
2023-05-25T23:18:25.071Z,11.40
2023-05-25T23:20:52.776Z,11.38
2023-05-25T23:23:20.758Z,11.36
2023-05-25T23:25:48.519Z,11.33
2023-05-25T23:28:16.314Z,11.30
2023-05-25T23:30:45.615Z,11.27
2023-05-25T23:33:13.337Z,11.22
2023-05-25T23:35:41.076Z,11.15
2023-05-25T23:38:09.098Z,11.10
2023-05-25T23:40:36.825Z,11.06
2023-05-25T23:43:05.780Z,11.01
2023-05-25T23:45:33.710Z,10.97
2023-05-25T23:48:02.944Z,10.93
2023-05-25T23:50:31.022Z,10.88
2023-05-25T23:52:58.715Z,10.85
2023-05-25T23:55:26.375Z,10.81
2023-05-25T23:57:54.229Z,10.77
